Benjamin Riquelme

Chefscout - Colo-Colo
25 Nov 2027
Donnerstag
Verarbeitung

Persönlichkeit

Anpassungsfähigkeit (5) Ehrgeiz (17) Kontroverse (19) Loyalität (17) Druck (12) Professionalität (9) Fairness (11) Temperament (5)

Profil

Trainerstil Demokratisch
Lizenz Kontinentale B
Entschlossenheit 7
Menschenführung 12
Motivation 14
Disziplin 13
Arbeitszufriedenheit
100%
Ermüdung
0%
Rolle Chefscout
Gehalt 60.2K p/W
Vertrag 14.03.2030

Leistung

Verhalten Gut
Trainingseffektivität
49%
Spielerentwicklung
30%
Verletzungsprävention
25%
Taktische Umsetzung
70%

Letzte Ereignisse

Spieler begutachtet jetzt
Spieler begutachtet jetzt
Nahm an einer Scouting-Besprechung teil jetzt
Empfahl ein Transferziel jetzt
Empfahl ein Transferziel jetzt
Empfahl ein Transferziel jetzt
Empfahl ein Transferziel jetzt
Empfahl ein Transferziel jetzt

Aktuell beobachtet

357
Spieler Verein Status Fähigkeit Vertrauen Beobachtet Zuletzt beobachtet Letzte Stimme
Tiziano Perrotta Mirandés Aktiv 105 / 110 40% 2 24.11.2027 -
Kauã Elias Anderlecht Aktiv 140 / 136 40% 2 24.11.2027 -
Nicolás Azambuja Cádiz Aktiv 123 / 128 40% 1 24.11.2027 -
Nicolás Tripichio San Lorenzo Aktiv 125 / 127 40% 6 22.11.2027 -
Rodrigo Villalba River Plate Aktiv 98 / 102 40% 7 22.11.2027 -
Yojan Garcés America de Cali Aktiv 115 / 111 40% 4 22.11.2027 -
Anderson Angulo Deportes Tolima Aktiv 120 / 112 40% 1 22.11.2027 -
Joaquín Varela Independiente Medellin Aktiv 118 / 114 40% 1 22.11.2027 -
Emanuel Coronel Rosario Central Aktiv 127 / 131 40% 4 20.11.2027 -
Yílmar Velásquez Santa Fe Aktiv 123 / 128 40% 4 20.11.2027 -
Diego Hernández Aguilas Doradas Aktiv 120 / 118 40% 1 20.11.2027 -
Franco Ibarra Rosario Central Aktiv 131 / 124 40% 4 19.11.2027 -
Ralph Orquin Seattle Sounders Aktiv 123 / 109 40% 2 19.11.2027 -
Jermein Peña Junior Aktiv 125 / 133 40% 2 19.11.2027 -
José Caldera Deportivo Cali Aktiv 118 / 111 40% 5 18.11.2027 -
José Ortiz Atletico Bucaramanga Aktiv 122 / 118 40% 3 18.11.2027 -
Alfredo Giraldo La Equidad Aktiv 128 / 123 40% 4 18.11.2027 -
Ruben Ramos LA Galaxy Aktiv 100 / 91 40% 3 17.11.2027 -
Axel Pedrozo Almagro Aktiv 84 / 92 40% 2 17.11.2027 -
Jorman Campuzano Atletico Nacional Aktiv 124 / 130 40% 6 17.11.2027 -
Esneyder Mena Deportivo Pasto Aktiv 117 / 119 40% 3 17.11.2027 -
Wilmar Hurtado Millonarios Aktiv 123 / 131 40% 2 17.11.2027 -
Amaury Morales Pumas UNAM Aktiv 117 / 136 40% 2 15.11.2027 -
Chimobi Igwilo Rangers International Aktiv 92 / 85 40% 1 15.11.2027 -
Fernando Bersano Madryn Aktiv 118 / 112 40% 3 12.11.2027 -
Leonardo Gonzalez Cortulua Aktiv 123 / 124 40% 5 12.11.2027 -
Anthony da Costa Artigas Aktiv 84 / 81 40% 4 10.11.2027 -
Nahuel Herrera Penarol Aktiv 125 / 133 40% 3 10.11.2027 -
Fernando Álvarez Deportivo Cali Aktiv 117 / 113 40% 1 10.11.2027 -
Keiner Arias Aguilas Doradas Aktiv 85 / 89 40% 1 10.11.2027 -
Nicolás Paz San Martín SJ Aktiv 123 / 116 40% 3 08.11.2027 -
Aldair Zárate Atletico Bucaramanga Aktiv 118 / 112 40% 5 08.11.2027 -
Delvin Alfonzo Deportivo Tachira Aktiv 118 / 116 40% 2 07.11.2027 -
Bryan Rovira Deportes Tolima Aktiv 119 / 119 40% 2 07.11.2027 -
Emiliano Álvarez Progreso Aktiv 126 / 117 40% 5 06.11.2027 -
James Cardona La Equidad Aktiv 143 / 136 40% 2 05.11.2027 -
Ignacio Abraham Banfield Aktiv 121 / 129 40% 2 05.11.2027 -
Tomás Escalante Plaza Colonia Aktiv 126 / 122 40% 2 03.11.2027 -
Alejandro Molina Tristán Suárez Aktiv 114 / 122 40% 3 03.11.2027 -
Kevin Angulo America de Cali Aktiv 101 / 107 40% 1 03.11.2027 -
Felipe Karabulut Gimnasia y Tiro Aktiv 91 / 104 40% 1 03.11.2027 -
Juan Rodríguez Wanderers Aktiv 98 / 99 40% 2 01.11.2027 -
Maren Kefas Plateau United Aktiv 91 / 81 40% 2 01.11.2027 -
Facundo Martínez Montevideo City Torque Aktiv 84 / 99 40% 3 01.11.2027 -
Francisco Álvarez Argentinos Juniors Aktiv 127 / 124 40% 2 30.10.2027 -
Iwan Morgan Grimsby Town Aktiv 119 / 135 40% 3 30.10.2027 -
Chineme Chinonso Ikorodu City Aktiv 93 / 104 40% 8 30.10.2027 -
Jan Carlos Ángulo Deportes Tolima Aktiv 123 / 126 40% 4 28.10.2027 -
Nicolás Gil America de Cali Aktiv 117 / 121 40% 3 25.10.2027 -
Cristian Trujillo Deportes Tolima Aktiv 117 / 124 40% 4 24.10.2027 -
Gonzalo Mottes Chacarita Juniors Aktiv 118 / 115 40% 1 23.10.2027 -
Léider Riascos Atletico Bucaramanga Aktiv 120 / 121 40% 3 22.10.2027 -
Sasha Marcich Lanús Aktiv 125 / 128 40% 3 22.10.2027 -
Matías Gómez Zira Aktiv 93 / 90 40% 1 22.10.2027 -
Mateo Mendoza Godoy Cruz Aktiv 130 / 130 40% 3 21.10.2027 -
Juan Infante Atlético Tucumán Aktiv 121 / 127 40% 1 18.10.2027 -
Franco Pizzichillo Montevideo City Torque Aktiv 120 / 126 40% 1 18.10.2027 -
Mateo Castillo Millonarios Aktiv 128 / 131 40% 1 17.10.2027 -
Julián Fabregas Jaguares Aktiv 84 / 95 40% 1 17.10.2027 -
Carlos da Rosa Cerro Aktiv 92 / 105 40% 2 15.10.2027 -
Ronaldo Pájaro Deportivo Cali Aktiv 118 / 126 40% 1 15.10.2027 -
Santiago Jiménez Deportivo Pasto Aktiv 120 / 128 40% 1 15.10.2027 -
Fabián Ángel Junior Aktiv 117 / 107 40% 1 11.10.2027 -
Leonardo Borja La Equidad Aktiv 147 / 135 40% 1 11.10.2027 -
Bruno Leyes Godoy Cruz Aktiv 127 / 122 40% 2 09.10.2027 -
Matías Pérez Alvarado Aktiv 89 / 103 40% 2 07.10.2027 -
Luis Yanes Real Cartagena Aktiv 93 / 96 40% 2 07.10.2027 -
Gabriel Sánchez Rosario Central Aktiv 92 / 108 40% 1 05.10.2027 -
Junior Hernández Deportes Tolima Aktiv 119 / 119 40% 1 30.09.2027 -
Omar Bertel America de Cali Aktiv 120 / 111 40% 2 29.09.2027 -
Lucas Carrizo Newell's Old Boys Aktiv 127 / 122 40% 1 27.09.2027 -
Samuel Velásquez Atletico Nacional Aktiv 125 / 113 40% 1 26.09.2027 -
Gonzalo Abrego Godoy Cruz Aktiv 126 / 131 40% 1 23.09.2027 -
Alejo Tabares All Boys Aktiv 119 / 121 40% 1 22.09.2027 -
Jean Carlos Pestaña Junior Aktiv 121 / 115 40% 1 22.09.2027 -
Andrés Román Atletico Nacional Aktiv 120 / 126 40% 1 22.09.2027 -
Kévin Denkey FC Cincinnati Aktiv 129 / 140 40% 2 20.09.2027 -
Juan Cruz de los Santos Nacional Aktiv 130 / 117 40% 2 20.09.2027 -
Bénie Traoré New York City Aktiv 125 / 114 40% 3 20.09.2027 -
Felipe Serrés Wanderers Aktiv 95 / 100 40% 2 19.09.2027 -
Dilan Godoy Vélez Aktiv 111 / 112 40% 2 19.09.2027 -
Mateo Cassierra Atlético Mineiro Aktiv 136 / 141 40% 2 19.09.2027 -
Miguel Castillo Deportivo Pasto Aktiv 129 / 129 40% 1 19.09.2027 -
Breel Embolo Atlanta United FC Aktiv 139 / 128 40% 3 17.09.2027 -
Leonardo Campana New England Revolution Aktiv 132 / 115 40% 1 17.09.2027 -
Rafael Navarro St. Louis CITY SC Aktiv 130 / 114 40% 1 16.09.2027 -
Ferreirinha Sport Recife Aktiv 133 / 122 40% 1 16.09.2027 -
Diego García Malmo FF Aktiv 124 / 124 40% 1 16.09.2027 -
Luciano Cosentino Wanderers Aktiv 125 / 121 40% 2 15.09.2027 -
Alexis Cuello San Lorenzo Aktiv 129 / 131 40% 1 15.09.2027 -
Timo Werner San Jose Earthquakes Aktiv 129 / 143 40% 6 14.09.2027 -
Dejan Joveljić Seattle Sounders Aktiv 129 / 124 40% 2 14.09.2027 -
Alejo Veliz Bahia Aktiv 136 / 136 40% 1 14.09.2027 -
Martín Ojeda Orlando City Aktiv 139 / 135 40% 4 13.09.2027 -
João Klauss LA Galaxy Aktiv 124 / 141 40% 1 13.09.2027 -
Edwuin Cetré Estudiantes Aktiv 128 / 127 40% 4 12.09.2027 -
Maximiliano Gómez Nacional Aktiv 125 / 118 40% 2 11.09.2027 -
Tadeo Allende Inter Miami CF Aktiv 128 / 116 40% 1 11.09.2027 -
Duncan McGuire Houston Dynamo Aktiv 130 / 119 40% 1 11.09.2027 -
Luca Langoni Colorado Rapids Aktiv 130 / 146 40% 1 09.09.2027 -
Agustín Anello Philadelphia Union Aktiv 129 / 139 40% 1 09.09.2027 -
Alfredo Morelos Atletico Nacional Aktiv 125 / 116 40% 1 09.09.2027 -
Morgan Guilavogui Real Salt Lake Aktiv 124 / 141 40% 3 08.09.2027 -
Adama Goïta Remo Stars Aktiv 97 / 92 40% 6 30.08.2027 -
Rodrigo Fernández Alvarado Aktiv 84 / 90 40% 2 27.08.2027 -
Octávio Silva Artigas Aktiv 83 / 79 40% 2 26.08.2027 -
Ramiro Jara Racing Aktiv 86 / 97 40% 4 22.08.2027 -
Luke Baartman ES Mostaganem Aktiv 109 / 97 40% 2 20.08.2027 -
Brandon Álvarez Penarol Aktiv 89 / 108 40% 1 20.08.2027 -
Paco Esteban Virtus Entella Aktiv 102 / 107 40% 1 18.08.2027 -
Darlvin Yeboah Bechem United Aktiv 84 / 96 40% 1 15.08.2027 -
Serge Daura Cotonsport Garoua Aktiv 98 / 95 40% 1 12.08.2027 -
Seymour Reid New York City Aktiv 97 / 97 40% 1 10.08.2027 -
Inti López River Plate Aktiv 94 / 96 40% 1 09.08.2027 -
Dylan Cabral Arsenal Aktiv 100 / 110 40% 1 05.08.2027 -
Andrés Calderón Deportivo Pereira Aktiv 82 / 93 40% 1 04.08.2027 -
Sayed Abu Farchi Maccabi Tel Aviv Aktiv 123 / 142 40% 1 04.08.2027 -
Eugenio Mena Universidad Catolica Aktiv 110 / 102 90% 1 28.06.2027 Befürworten
Finn Azaz Southampton Aktiv 132 / 133 40% 7 01.06.2027 -
Toni Fruk KV Mechelen Aktiv 132 / 133 66% 1 01.06.2027 Befürworten
Guille Rosas Gijón Aktiv 140 / 144 40% 1 01.06.2027 -
Mohamed-Ali Cho Hull City Aktiv 132 / 148 40% 2 31.05.2027 -
Ali Ahmed Norwich City Aktiv 124 / 130 40% 5 31.05.2027 -
Tyreece Campbell Charlton Athletic Aktiv 116 / 121 40% 4 29.05.2027 -
Zian Flemming Ipswich Town Aktiv 132 / 128 40% 1 29.05.2027 -
Bojan Radulović Huddersfield Town Aktiv 113 / 107 40% 1 29.05.2027 -
Gonzalo Fulham Aktiv 146 / 137 40% 1 29.05.2027 -
Callum Brittain Middlesbrough Aktiv 127 / 119 40% 3 25.05.2027 -
Saša Lukić Ipswich Town Aktiv 139 / 140 40% 1 25.05.2027 -
Alex Lowry Wycombe Wanderers Aktiv 119 / 125 40% 1 25.05.2027 -
Morgan Whittaker Middlesbrough Aktiv 138 / 141 40% 4 24.05.2027 -
Cian Ashford Cardiff City Aktiv 113 / 117 40% 5 23.05.2027 -
Riley McGree Middlesbrough Aktiv 129 / 132 40% 4 23.05.2027 -
Ronan Hale Gillingham Aktiv 115 / 123 40% 3 23.05.2027 -
Sorba Thomas Stoke City Aktiv 128 / 137 40% 5 22.05.2027 -
Ethan Galbraith Swansea City Aktiv 133 / 136 40% 2 22.05.2027 -
Harry Wilson Leeds United Aktiv 146 / 156 40% 1 22.05.2027 -
Tom Fellows Southampton Aktiv 133 / 142 40% 7 21.05.2027 -
Tommy Conway Middlesbrough Aktiv 126 / 121 40% 1 21.05.2027 -
Othmane Maamma Watford Aktiv 124 / 119 40% 6 20.05.2027 -
Kasey McAteer Ipswich Town Aktiv 133 / 116 40% 2 20.05.2027 -
Richard Koné Queens Park Rangers Aktiv 120 / 130 40% 5 18.05.2027 -
Derensili Sanches Fernandes Huddersfield Town Aktiv 127 / 123 40% 9 18.05.2027 -
Kwadwo Baah Watford Aktiv 125 / 114 40% 5 18.05.2027 -
Ryoya Morishita Blackburn Rovers Aktiv 127 / 116 40% 5 18.05.2027 -
Bertrand Traoré Sunderland Aktiv 138 / 130 40% 1 18.05.2027 -
Tshepang Moremi Orlando Pirates Aktiv 122 / 129 40% 5 15.05.2027 -
David Brooks Bournemouth Aktiv 137 / 130 40% 5 15.05.2027 -
Scott Twine Bristol City Aktiv 127 / 125 40% 1 15.05.2027 -
Nordi Mukiele Sunderland Aktiv 142 / 129 40% 3 11.05.2027 -
Jack McGlynn Stoke City Aktiv 128 / 142 40% 3 11.05.2027 -
Welington Southampton Aktiv 130 / 138 40% 3 11.05.2027 -
Josh Tymon Swansea City Aktiv 126 / 130 40% 1 09.05.2027 -
Ethan Williams Peterborough United Aktiv 119 / 112 40% 1 09.05.2027 -
Tyrese Campbell Sheffield United Aktiv 129 / 128 40% 2 08.05.2027 -
Zeidane Inoussa Swansea City Aktiv 119 / 120 40% 1 08.05.2027 -
Stephen Humphrys Bradford City Aktiv 111 / 120 40% 1 08.05.2027 -
Nicolò Cambiaghi Bologna Aktiv 145 / 147 40% 3 07.05.2027 Beobachten
Nicolò Tresoldi Club Brugge Aktiv 133 / 120 40% 2 05.05.2027 -
Robert Mizo Ashanti Gold Aktiv 105 / 93 40% 3 05.05.2027 -
Lee Bonis Chesterfield Aktiv 99 / 106 40% 1 05.05.2027 -
Enzo Le Fée Sunderland Aktiv 141 / 138 40% 2 03.05.2027 Mehr Infos nötig
Tyler Goodrham Oxford United Aktiv 123 / 138 40% 1 03.05.2027 -
Mohamed Belloumi Hull City Aktiv 141 / 128 40% 1 02.05.2027 -
Florentino Luís Ipswich Town Aktiv 137 / 129 40% 1 02.05.2027 -
Jack Rudoni Coventry City Aktiv 138 / 129 40% 1 02.05.2027 -
Hwang Hee-Chan Wolverhampton Aktiv 137 / 125 40% 1 01.05.2027 -
Kwame Poku Queens Park Rangers Aktiv 128 / 114 40% 1 29.04.2027 -
Ianis Hagi Alanyaspor Aktiv 135 / 121 40% 5 26.04.2027 -
Jason Knight Bristol City Aktiv 127 / 117 40% 1 26.04.2027 -
Marcelo Allende Mamelodi Sundowns Aktiv 131 / 115 40% 6 24.04.2027 -
Oston O'runov Persepolis Aktiv 128 / 123 40% 2 24.04.2027 -
Callum O'Hare Sheffield United Aktiv 130 / 143 40% 3 22.04.2027 -
Ronald Swansea City Aktiv 131 / 114 40% 3 19.04.2027 -
Mduduzi Shabalala Kaizer Chiefs Aktiv 116 / 120 40% 4 12.04.2027 -
Igor Burnley Aktiv 144 / 128 40% 1 11.04.2027 -
Lewis Morgan SuperSport United Aktiv 131 / 132 40% 4 08.04.2027 -
Isaiah Jones Luton Town Aktiv 122 / 120 40% 3 08.04.2027 -
Razvan Balasa Crvena Zvezda Aktiv 152 / 151 40% 3 04.04.2027 -
Max Bird Birmingham Aktiv 127 / 144 40% 1 04.04.2027 -
Dávid Strelec Middlesbrough Aktiv 145 / 124 40% 1 04.04.2027 -
Rhian Brewster Oxford United Aktiv 122 / 123 40% 1 04.04.2027 -
Oh Hyeon-Gyu Besiktas Aktiv 123 / 107 40% 2 03.04.2027 -
Mohammed Yahaya Great Olympics Aktiv 86 / 75 40% 2 03.04.2027 -
Tom Cannon Sheffield United Aktiv 126 / 140 40% 3 03.04.2027 -
Zeki Amdouni Burnley Aktiv 130 / 136 40% 1 31.03.2027 -
Stanley Mills Oxford United Aktiv 127 / 122 40% 2 30.03.2027 -
Williams Manyama SuperSport United Aktiv 116 / 131 40% 3 29.03.2027 -
Andrés Dieppa Metalurh Zaporizhzhia Aktiv 98 / 95 40% 1 27.03.2027 -
Lewis McCann Fleetwood Town Aktiv 103 / 96 40% 1 27.03.2027 -
Sam Bell Bristol City Aktiv 115 / 119 40% 2 24.03.2027 -
Leon Bailey Olympiacos Aktiv 148 / 130 40% 4 24.03.2027 -
Ilyas Ansah Hull City Aktiv 133 / 136 40% 2 24.03.2027 -
Nicolò Zaniolo Udinese Aktiv 139 / 147 40% 1 24.03.2027 -
Patrick Maswanganyi Orlando Pirates Aktiv 118 / 106 40% 1 21.03.2027 -
Dom Ballard Leyton Orient Aktiv 120 / 134 40% 3 19.03.2027 -
Mandla Erasmus SuperSport United Aktiv 126 / 128 40% 2 14.03.2027 -
Jayden Wareham Barnet Aktiv 100 / 116 40% 1 13.03.2027 -
Cameron Archer Southampton Aktiv 130 / 124 40% 1 13.03.2027 Mehr Infos nötig
Tomás González Piast Aktiv 115 / 124 40% 3 11.03.2027 -
Ollie Tanner Cardiff City Aktiv 121 / 118 40% 1 11.03.2027 -
Ekain Orobengoa Real Sociedad Aktiv 98 / 91 40% 1 07.03.2027 -
Félix Lemaréchal Club Brugge Aktiv 134 / 132 40% 2 23.02.2027 -
Joe Gelhardt Hull City Aktiv 131 / 139 40% 1 21.02.2027 -
Lassina Traoré Shakhtar Aktiv 123 / 113 40% 1 21.02.2027 -
Thibaud Verlinden OH Leuven Aktiv 121 / 136 40% 2 16.02.2027 -
Ilias Chair Queens Park Rangers Aktiv 127 / 139 40% 1 14.02.2027 -
Kerem Aktürkoğlu Fenerbahce Aktiv 146 / 138 40% 1 14.02.2027 -
Shahriar Dejagah Tractor Aktiv 131 / 131 40% 3 11.02.2027 -
Adnan Courtois KV Oostende Aktiv 144 / 146 40% 1 11.02.2027 -
Ruben van Bommel Ferencvaros Aktiv 130 / 150 40% 5 09.02.2027 -
Rafiu Durosinmi Racing Genk Aktiv 133 / 132 40% 2 09.02.2027 -
Bongani Mothiba SuperSport United Aktiv 90 / 85 40% 2 07.02.2027 -
Jacques Siwe Rubin Aktiv 116 / 114 40% 2 07.02.2027 -
Luciano Gondou CSKA Moscow Aktiv 126 / 145 40% 4 03.02.2027 -
Lorent Tolaj Plymouth Argyle Aktiv 117 / 130 40% 2 01.02.2027 -
Pedrinho Shakhtar Aktiv 135 / 136 40% 1 01.02.2027 -
Majid Beiranvand Rah Ahan Aktiv 102 / 108 40% 2 30.01.2027 -
Juan Cruz Martins Jihlava Aktiv 108 / 85 40% 1 29.01.2027 -
Adriano Bertaccini Anderlecht Aktiv 122 / 136 40% 1 29.01.2027 -
Nicolás Cordero Aldosivi Aktiv 121 / 111 40% 2 27.01.2027 -
Yousef Salech Cardiff City Aktiv 131 / 137 40% 2 26.01.2027 -
Themba Ngcobo SuperSport United Aktiv 116 / 127 40% 1 26.01.2027 -
Pablo Rodríguez Lech Aktiv 130 / 113 40% 1 25.01.2027 -
Evidence Makgopa Orlando Pirates Aktiv 108 / 112 40% 1 24.01.2027 -
Marezi Portsmouth Aktiv 125 / 130 40% 1 24.01.2027 -
Abu Kamara Portsmouth Aktiv 120 / 106 40% 1 23.01.2027 -
Mathias Jørgensen Blackburn Rovers Aktiv 115 / 133 40% 2 22.01.2027 -
David Ankeye Zeleznicar Pancevo Aktiv 114 / 113 40% 1 22.01.2027 -
Mees Rijks Bristol Rovers Aktiv 118 / 114 40% 2 18.01.2027 -
Kwame Opoku Asante Kotoko Aktiv 94 / 83 40% 1 11.01.2027 -
Bamba Dieng Crvena Zvezda Aktiv 128 / 143 40% 5 08.01.2027 -
Mandla Mahlangu Ajax Cape Town Aktiv 116 / 93 40% 1 08.01.2027 -
Ramiro Ruiz Rodríguez Atlético Tucumán Aktiv 124 / 126 40% 1 08.01.2027 -
Alexander Díaz Deportivo Riestra Aktiv 122 / 122 40% 1 07.01.2027 -
Adam Idah Swansea City Aktiv 127 / 122 40% 1 05.01.2027 -
Brayan León Mamelodi Sundowns Aktiv 115 / 122 40% 1 04.01.2027 -
Rubén Duarte Legia Aktiv 127 / 124 40% 4 19.12.2026 -
Imanol Machuca Independiente Aktiv 121 / 113 40% 1 18.12.2026 -
Emanuel Mammana Vélez Aktiv 130 / 126 40% 1 14.12.2026 -
Iván Rozas Antofagasta Aktiv 96 / 104 79% 1 03.12.2026 Befürworten
Marvin Keller Bayer Leverkusen Aktiv 136 / 137 67% 1 01.12.2026 Befürworten
Stanislav Agkatsev Sunderland Aktiv 132 / 133 66% 1 01.12.2026 Befürworten
Konstantin Tyukavin Inter Aktiv 132 / 133 66% 1 01.12.2026 Befürworten
Santiago González Tigre Aktiv 125 / 139 40% 2 30.11.2026 -
Matías Zaracho Racing Club Aktiv 122 / 120 40% 1 30.11.2026 -
Aarón Molinas Defensa y Justicia Aktiv 123 / 117 40% 6 29.11.2026 -
Alex Luna Instituto Aktiv 125 / 119 40% 3 29.11.2026 -
Marcelino Moreno Lanús Aktiv 132 / 122 40% 4 29.11.2026 -
Tatsuhiro Sakamoto Coventry City Aktiv 132 / 130 40% 3 28.11.2026 -
Leandro Lozano Boca Juniors Aktiv 122 / 130 40% 2 28.11.2026 -
Lukáš Červ Viktoria Plzen Aktiv 136 / 131 40% 1 27.11.2026 -
Petar Musa Adana Demirspor Aktiv 142 / 145 40% 4 26.11.2026 -
Santiago Montiel Independiente Aktiv 130 / 133 40% 2 26.11.2026 -
Rafael Santos Borré Torino Aktiv 135 / 130 40% 2 26.11.2026 -
Ola Brynhildsen Bodo/Glimt Aktiv 128 / 117 40% 1 26.11.2026 -
Moussa Dembélé CR Belouizdad Aktiv 129 / 134 40% 2 24.11.2026 -
Hany Mukhtar Spezia Aktiv 131 / 124 40% 1 24.11.2026 -
Kristoffer Lund Birmingham Aktiv 121 / 140 40% 1 24.11.2026 -
Matko Miljevic Racing Club Aktiv 127 / 119 40% 1 24.11.2026 -
Nicolás Fernández Sassuolo Aktiv 120 / 141 40% 2 23.11.2026 -
Tiago Palacios Estudiantes Aktiv 127 / 127 40% 4 22.11.2026 -
Tomás Conechny Racing Club Aktiv 126 / 125 40% 2 22.11.2026 -
Luka Jović AEK Aktiv 143 / 143 40% 1 18.11.2026 -
Joaquín García Vélez Aktiv 125 / 120 40% 2 16.11.2026 -
Yusuke Matsuo Esteghlal Aktiv 126 / 132 40% 2 16.11.2026 -
Thomas De Bruyne Mouscron Aktiv 128 / 127 40% 1 15.11.2026 -
Ryan Christie Bournemouth Aktiv 138 / 149 40% 1 13.11.2026 -
Agustín Cardozo Lanús Aktiv 127 / 135 40% 1 13.11.2026 -
Reda Khadra Qarabag Aktiv 124 / 119 40% 3 09.11.2026 -
Tomás Silva Platense Aktiv 127 / 115 40% 1 09.11.2026 -
Leander Lukaku KV Oostende Aktiv 126 / 132 40% 1 08.11.2026 -
Iván Arboleda Sarmiento Aktiv 124 / 130 40% 1 08.11.2026 -
Santiago Silva CFR Cluj Aktiv 115 / 118 40% 1 08.11.2026 -
Ryan Gauld Vancouver Whitecaps Aktiv 140 / 125 40% 4 05.11.2026 -
Marquinhos Spartak Moscow Aktiv 131 / 112 40% 5 05.11.2026 -
Alan Lescano Argentinos Juniors Aktiv 130 / 131 40% 2 04.11.2026 -
Alexander Nübel Besiktas Aktiv 148 / 137 40% 1 27.10.2026 -
Tomás Marchiori Vélez Aktiv 131 / 134 40% 1 24.10.2026 -
Wessam Abou Ali Columbus Crew Aktiv 127 / 140 40% 1 22.10.2026 -
Kein Sato FC Tokyo Aktiv 136 / 141 40% 1 22.10.2026 -
Allan Saint-Maximin Charlotte Football Club Aktiv 141 / 128 40% 3 20.10.2026 -
Jaminton Campaz Rosario Central Aktiv 123 / 120 40% 2 20.10.2026 -
Gastón Lodico Racing Club Aktiv 133 / 126 40% 2 18.10.2026 -
Lautaro Blanco Boca Juniors Aktiv 125 / 135 40% 1 18.10.2026 -
Santiago Ascacíbar Boca Juniors Aktiv 125 / 119 40% 2 17.10.2026 -
Mutsuki Kato Sanfrecce Hiroshima Aktiv 125 / 119 40% 1 17.10.2026 -
Erison Kawasaki Frontale Aktiv 130 / 115 40% 1 17.10.2026 -
Karim Konaté Red Bull Salzburg Aktiv 138 / 134 40% 2 16.10.2026 -
Takuma Asano Sanfrecce Hiroshima Aktiv 139 / 144 40% 1 14.10.2026 -
Alexey Miranchuk St. Gallen Aktiv 138 / 151 40% 1 13.10.2026 -
Cho Gue-Sung FC Midtjylland Aktiv 121 / 142 40% 1 13.10.2026 -
Sergio Reguilón Inter Miami CF Aktiv 141 / 118 40% 2 10.10.2026 -
Jordan Morris Seattle Sounders Aktiv 123 / 133 40% 2 08.10.2026 -
Gabriel Neves Estudiantes Aktiv 128 / 125 40% 1 08.10.2026 -
Marco Asensio Fenerbahce Aktiv 156 / 157 40% 2 07.10.2026 -
Elias Achouri San Diego Football Club Aktiv 126 / 146 40% 4 07.10.2026 -
Conrad Wallem Austria Wien Aktiv 126 / 141 40% 3 06.10.2026 -
Gabriel Pirani San Diego Football Club Aktiv 130 / 125 40% 2 04.10.2026 -
Telasco Segovia Inter Miami CF Aktiv 125 / 144 40% 3 04.10.2026 -
Petar Stanić Ludogorets Aktiv 135 / 130 40% 2 03.10.2026 -
Jesus Ferreira Seattle Sounders Aktiv 125 / 138 40% 1 03.10.2026 -
Daiya Tono Yokohama F. Marinos Aktiv 120 / 122 40% 1 03.10.2026 -
Iván Angulo Orlando City Aktiv 124 / 124 40% 3 02.10.2026 -
Bryan Ramírez FC Cincinnati Aktiv 127 / 133 40% 2 01.10.2026 -
Ivan Toney Al-Ahli Aktiv 149 / 137 40% 1 01.10.2026 -
Franco Cristaldo Talleres Aktiv 130 / 117 40% 1 29.09.2026 -
Pep Biel Charlotte Football Club Aktiv 136 / 130 40% 2 28.09.2026 -
Sam Surridge Nashville SC Aktiv 133 / 124 40% 1 28.09.2026 -
Martin Jedlička Banik Ostrava Aktiv 127 / 131 40% 1 28.09.2026 -
Drake Callender Minnesota United FC Aktiv 125 / 124 40% 1 28.09.2026 -
Bilal Bayazıt Kayserispor Aktiv 114 / 127 40% 1 28.09.2026 -
Maurits Kjærgaard Red Bull Salzburg Aktiv 128 / 135 40% 1 26.09.2026 -
Jonathan Bamba Chicago Fire Aktiv 141 / 129 40% 4 24.09.2026 -
Santiago Rodríguez Columbus Crew Aktiv 132 / 110 40% 2 24.09.2026 -
Ole-Didrik Blomberg Bodo/Glimt Aktiv 132 / 111 40% 1 23.09.2026 -
Jhon Jhon Zenit Aktiv 130 / 143 40% 1 23.09.2026 -
Otávio Al-Qadisiyah Aktiv 148 / 135 40% 1 23.09.2026 -
Stijn Spierings Real Salt Lake Aktiv 117 / 109 40% 1 23.09.2026 -
Zack Steffen Spartak Moscow Aktiv 128 / 129 40% 1 22.09.2026 -
Mateusz Kochalski Dynamo Kyiv Aktiv 136 / 139 40% 1 22.09.2026 -
Tomás Chancalay Minnesota United FC Aktiv 123 / 125 40% 2 21.09.2026 -
Sergi Palencia Los Angeles Football Club Aktiv 120 / 118 40% 1 21.09.2026 -
David Da Costa Portland Timbers Aktiv 133 / 139 40% 3 15.09.2026 -
Alhassan Yusuf New England Revolution Aktiv 120 / 141 40% 1 12.09.2026 -
Anton Salétros Chicago Fire Aktiv 130 / 115 40% 1 12.09.2026 -
Joao Ortiz Portland Timbers Aktiv 121 / 128 40% 1 12.09.2026 -
Lasse Berg Johnsen Sporting Kansas City Aktiv 129 / 112 40% 1 11.09.2026 -
Christian Krasnodar Aktiv 125 / 144 40% 1 06.09.2026 -
Rashid Rashid Sparta Prague Aktiv 132 / 144 40% 1 06.09.2026 -
Julián Quiñones Lokomotiv Moscow Aktiv 144 / 148 40% 1 06.09.2026 -
Anders Dreyer San Diego Football Club Aktiv 136 / 146 40% 2 03.09.2026 -
Luca De La Torre Charlotte Football Club Aktiv 134 / 138 40% 1 03.09.2026 -
Myrto Uzuni Austin FC Aktiv 129 / 137 40% 1 01.09.2026 -
Lucas Torreira Galatasaray Aktiv 150 / 167 40% 2 31.08.2026 -
Nicolás Fernández Mercau Shakhtar Aktiv 133 / 147 40% 1 31.08.2026 -
Jack Harrison New England Revolution Aktiv 123 / 128 40% 2 28.08.2026 -
Keaton Parks Helsingborg Aktiv 125 / 145 40% 3 27.08.2026 -
Philip Zinckernagel Chicago Fire Aktiv 130 / 114 40% 1 26.08.2026 -
Cristian Espinoza Nashville SC Aktiv 138 / 136 40% 2 25.08.2026 -
Sergej Milinković-Savić Al-Hilal Aktiv 151 / 155 40% 2 24.08.2026 -
Marcel Hartel St. Louis CITY SC Aktiv 136 / 118 40% 2 19.08.2026 -
Ian Garguez Palestino Aktiv 111 / 116 30% 1 / 1m 19.08.2026 -
Eduard Löwen San Jose Earthquakes Aktiv 129 / 116 40% 2 18.08.2026 -
Pavel Bucha FC Cincinnati Aktiv 128 / 125 40% 1 17.08.2026 -
Yasuto Wakizaka Kawasaki Frontale Aktiv 136 / 132 40% 3 16.08.2026 -
Djordje Mihailović Toronto FC Aktiv 133 / 140 40% 1 11.08.2026 -
Paxten Aaronson Colorado Rapids Aktiv 137 / 125 40% 2 10.08.2026 -
Eduard Spertsyan Al-Ahli Aktiv 138 / 152 40% 1 08.08.2026 -
Wendel Zenit Aktiv 134 / 145 40% 2 06.08.2026 -
Khuliso Mudau Mamelodi Sundowns Aktiv 131 / 129 40% 1 06.08.2026 -
Gift Ngcobo Ajax Cape Town Aktiv 123 / 127 40% 1 04.08.2026 -
Mohamed Simakan Al-Nassr Aktiv 137 / 128 40% 1 03.08.2026 -
Nacho Vidal Oviedo Aktiv 133 / 112 40% 1 02.08.2026 -
Carl Starfelt Celta Aktiv 149 / 147 40% 1 02.08.2026 -
Óscar Valentín Rayo Vallecano Aktiv 136 / 122 40% 1 02.08.2026 -
Mateu Morey Girona Aktiv 129 / 117 40% 1 01.08.2026 -